sensor_id;sensor_type;location;lat;lon;timestamp;pressure;altitude;pressure_sealevel;temperature;humidity
73422;BME280;61637;47.760;-122.022;2023-11-19T00:00:00;100237.144;;;11.4;69.0
73422;BME280;61637;47.760;-122.022;2023-11-19T00:02:00;100237.144;;;11.4;68.0
73422;BME280;61637;47.760;-122.022;2023-11-19T00:04:00;100237.144;;;11.4;69.0
73422;BME280;61637;47.760;-122.022;2023-11-19T00:06:01;100237.144;;;11.3;69.0
73422;BME280;61637;47.760;-122.022;2023-11-19T00:08:00;100237.144;;;11.3;68.0
73422;BME280;61637;47.760;-122.022;2023-11-19T00:10:00;100237.144;;;11.3;70.0
73422;BME280;61637;47.760;-122.022;2023-11-19T00:12:00;100237.144;;;11.2;69.0
73422;BME280;61637;47.760;-122.022;2023-11-19T00:14:00;100237.144;;;11.2;69.0
73422;BME280;61637;47.760;-122.022;2023-11-19T00:16:00;100237.144;;;11.1;69.0
73422;BME280;61637;47.760;-122.022;2023-11-19T00:18:01;100237.144;;;11.1;70.0
73422;BME280;61637;47.760;-122.022;2023-11-19T00:20:00;100237.144;;;11.0;70.0
73422;BME280;61637;47.760;-122.022;2023-11-19T00:22:00;100237.144;;;10.9;70.0
73422;BME280;61637;47.760;-122.022;2023-11-19T00:24:00;100237.144;;;10.8;70.0
73422;BME280;61637;47.760;-122.022;2023-11-19T00:26:00;100237.144;;;10.8;70.0
73422;BME280;61637;47.760;-122.022;2023-11-19T00:28:00;100237.144;;;10.8;71.0
73422;BME280;61637;47.760;-122.022;2023-11-19T00:30:00;100237.144;;;10.7;70.0
73422;BME280;61637;47.760;-122.022;2023-11-19T00:32:00;100237.144;;;10.6;70.0
73422;BME280;61637;47.760;-122.022;2023-11-19T00:34:00;100237.144;;;10.6;71.0
73422;BME280;61637;47.760;-122.022;2023-11-19T00:36:00;100237.144;;;10.6;70.0
73422;BME280;61637;47.760;-122.022;2023-11-19T00:38:00;100237.144;;;10.6;71.0
73422;BME280;61637;47.760;-122.022;2023-11-19T00:40:00;100237.144;;;10.5;71.0
73422;BME280;61637;47.760;-122.022;2023-11-19T00:42:01;100237.144;;;10.5;70.0
73422;BME280;61637;47.760;-122.022;2023-11-19T00:44:00;100237.144;;;10.6;70.0
73422;BME280;61637;47.760;-122.022;2023-11-19T00:46:00;100237.144;;;10.6;69.0
73422;BME280;61637;47.760;-122.022;2023-11-19T00:48:00;100237.144;;;10.6;70.0
73422;BME280;61637;47.760;-122.022;2023-11-19T00:50:00;100237.144;;;10.5;72.0
73422;BME280;61637;47.760;-122.022;2023-11-19T00:52:00;100237.144;;;10.5;71.0
73422;BME280;61637;47.760;-122.022;2023-11-19T00:54:00;100237.144;;;10.5;71.0
73422;BME280;61637;47.760;-122.022;2023-11-19T00:56:00;100237.144;;;10.5;71.0
73422;BME280;61637;47.760;-122.022;2023-11-19T00:58:00;100237.144;;;10.5;71.0
73422;BME280;61637;47.760;-122.022;2023-11-19T01:00:00;100237.144;;;10.5;70.0
73422;BME280;61637;47.760;-122.022;2023-11-19T01:02:00;100237.144;;;10.4;71.0
73422;BME280;61637;47.760;-122.022;2023-11-19T01:04:00;100237.144;;;10.4;71.0
73422;BME280;61637;47.760;-122.022;2023-11-19T01:06:01;100237.144;;;10.3;71.0
73422;BME280;61637;47.760;-122.022;2023-11-19T01:08:00;100237.144;;;10.3;71.0
73422;BME280;61637;47.760;-122.022;2023-11-19T01:10:00;100237.144;;;10.3;72.0
73422;BME280;61637;47.760;-122.022;2023-11-19T01:12:00;100237.144;;;10.2;71.0
73422;BME280;61637;47.760;-122.022;2023-11-19T01:14:00;100237.144;;;10.2;73.0
73422;BME280;61637;47.760;-122.022;2023-11-19T01:16:01;100237.144;;;10.1;69.0
73422;BME280;61637;47.760;-122.022;2023-11-19T01:18:00;100237.144;;;10.1;70.0
73422;BME280;61637;47.760;-122.022;2023-11-19T01:20:00;100237.144;;;10.1;72.0
73422;BME280;61637;47.760;-122.022;2023-11-19T01:22:00;100237.144;;;10.1;73.0
73422;BME280;61637;47.760;-122.022;2023-11-19T01:24:00;100237.144;;;10.0;73.0
73422;BME280;61637;47.760;-122.022;2023-11-19T01:26:00;100237.144;;;9.9;73.0
73422;BME280;61637;47.760;-122.022;2023-11-19T01:28:00;100237.144;;;9.9;73.0
73422;BME280;61637;47.760;-122.022;2023-11-19T01:30:01;100237.144;;;9.8;73.0
73422;BME280;61637;47.760;-122.022;2023-11-19T01:32:00;100237.144;;;9.8;73.0
73422;BME280;61637;47.760;-122.022;2023-11-19T01:34:00;100237.144;;;9.7;74.0
73422;BME280;61637;47.760;-122.022;2023-11-19T01:36:00;100237.144;;;9.6;74.0
73422;BME280;61637;47.760;-122.022;2023-11-19T01:38:00;100237.144;;;9.5;76.0
73422;BME280;61637;47.760;-122.022;2023-11-19T01:40:01;100237.144;;;9.4;75.0
73422;BME280;61637;47.760;-122.022;2023-11-19T01:42:00;100237.144;;;9.4;74.0
73422;BME280;61637;47.760;-122.022;2023-11-19T01:44:00;100237.144;;;9.4;77.0
73422;BME280;61637;47.760;-122.022;2023-11-19T01:46:01;100237.144;;;9.3;76.0
73422;BME280;61637;47.760;-122.022;2023-11-19T01:48:02;100237.144;;;9.3;76.0
73422;BME280;61637;47.760;-122.022;2023-11-19T01:50:00;100237.144;;;9.3;76.0
73422;BME280;61637;47.760;-122.022;2023-11-19T01:52:01;100237.144;;;9.3;73.0
73422;BME280;61637;47.760;-122.022;2023-11-19T01:54:01;100237.144;;;9.4;75.0
73422;BME280;61637;47.760;-122.022;2023-11-19T01:56:00;100237.144;;;9.3;74.0
73422;BME280;61637;47.760;-122.022;2023-11-19T01:58:00;100237.144;;;9.3;75.0
73422;BME280;61637;47.760;-122.022;2023-11-19T02:00:00;100237.144;;;9.3;76.0
73422;BME280;61637;47.760;-122.022;2023-11-19T02:02:00;100237.144;;;9.3;75.0
73422;BME280;61637;47.760;-122.022;2023-11-19T02:04:01;100237.144;;;9.3;76.0
73422;BME280;61637;47.760;-122.022;2023-11-19T02:06:01;100237.144;;;9.2;75.0
73422;BME280;61637;47.760;-122.022;2023-11-19T02:08:00;100237.144;;;9.2;75.0
73422;BME280;61637;47.760;-122.022;2023-11-19T02:10:00;100237.144;;;9.3;73.0
73422;BME280;61637;47.760;-122.022;2023-11-19T02:12:00;100237.144;;;9.3;73.0
73422;BME280;61637;47.760;-122.022;2023-11-19T02:14:00;100237.144;;;9.3;75.0
73422;BME280;61637;47.760;-122.022;2023-11-19T02:16:01;100237.144;;;9.3;76.0
73422;BME280;61637;47.760;-122.022;2023-11-19T02:20:00;100237.144;;;9.2;76.0
73422;BME280;61637;47.760;-122.022;2023-11-19T02:22:00;100237.144;;;9.2;76.0
73422;BME280;61637;47.760;-122.022;2023-11-19T02:24:01;100237.144;;;9.2;76.0
73422;BME280;61637;47.760;-122.022;2023-11-19T02:26:03;100237.144;;;9.2;76.0
73422;BME280;61637;47.760;-122.022;2023-11-19T02:28:01;100237.144;;;9.1;75.0
73422;BME280;61637;47.760;-122.022;2023-11-19T02:30:00;100237.144;;;9.1;76.0
73422;BME280;61637;47.760;-122.022;2023-11-19T02:32:00;100237.144;;;9.1;74.0
73422;BME280;61637;47.760;-122.022;2023-11-19T02:34:00;100237.144;;;9.1;76.0
73422;BME280;61637;47.760;-122.022;2023-11-19T02:36:00;100237.144;;;9.1;73.0
73422;BME280;61637;47.760;-122.022;2023-11-19T02:38:00;100237.144;;;9.1;73.0
73422;BME280;61637;47.760;-122.022;2023-11-19T02:40:01;100237.144;;;9.3;72.0
73422;BME280;61637;47.760;-122.022;2023-11-19T02:42:01;100237.144;;;9.3;73.0
73422;BME280;61637;47.760;-122.022;2023-11-19T02:44:00;100237.144;;;9.3;71.0
73422;BME280;61637;47.760;-122.022;2023-11-19T02:46:01;100237.144;;;9.4;74.0
73422;BME280;61637;47.760;-122.022;2023-11-19T02:48:00;100237.144;;;9.4;73.0
73422;BME280;61637;47.760;-122.022;2023-11-19T02:50:01;100237.144;;;9.4;73.0
73422;BME280;61637;47.760;-122.022;2023-11-19T02:52:00;100237.144;;;9.3;75.0
73422;BME280;61637;47.760;-122.022;2023-11-19T02:54:01;100237.144;;;9.3;73.0
73422;BME280;61637;47.760;-122.022;2023-11-19T02:56:00;100237.144;;;9.2;74.0
73422;BME280;61637;47.760;-122.022;2023-11-19T02:58:00;100237.144;;;9.2;76.0
73422;BME280;61637;47.760;-122.022;2023-11-19T03:00:00;100237.144;;;9.1;74.0
73422;BME280;61637;47.760;-122.022;2023-11-19T03:02:00;100237.144;;;9.1;75.0
73422;BME280;61637;47.760;-122.022;2023-11-19T03:04:00;100237.144;;;9.1;75.0
73422;BME280;61637;47.760;-122.022;2023-11-19T03:06:01;100237.144;;;9.1;75.0
73422;BME280;61637;47.760;-122.022;2023-11-19T03:08:00;100237.144;;;9.1;74.0
73422;BME280;61637;47.760;-122.022;2023-11-19T03:10:00;100237.144;;;9.1;73.0
73422;BME280;61637;47.760;-122.022;2023-11-19T03:12:00;100237.144;;;9.1;75.0
73422;BME280;61637;47.760;-122.022;2023-11-19T03:14:00;100237.144;;;9.1;73.0
73422;BME280;61637;47.760;-122.022;2023-11-19T03:16:00;100237.144;;;9.1;73.0
73422;BME280;61637;47.760;-122.022;2023-11-19T03:18:00;100237.144;;;9.2;73.0
73422;BME280;61637;47.760;-122.022;2023-11-19T03:20:00;100237.144;;;9.1;73.0
73422;BME280;61637;47.760;-122.022;2023-11-19T03:22:01;100237.144;;;9.1;73.0
73422;BME280;61637;47.760;-122.022;2023-11-19T03:24:00;100237.144;;;9.1;72.0
73422;BME280;61637;47.760;-122.022;2023-11-19T03:26:00;100237.144;;;9.1;74.0
73422;BME280;61637;47.760;-122.022;2023-11-19T03:28:01;100237.144;;;9.1;72.0
73422;BME280;61637;47.760;-122.022;2023-11-19T03:30:01;100237.144;;;9.1;73.0
73422;BME280;61637;47.760;-122.022;2023-11-19T03:32:00;100237.144;;;9.1;73.0
73422;BME280;61637;47.760;-122.022;2023-11-19T03:34:00;100237.144;;;9.1;73.0
73422;BME280;61637;47.760;-122.022;2023-11-19T03:36:00;100237.144;;;9.1;73.0
73422;BME280;61637;47.760;-122.022;2023-11-19T03:38:00;100237.144;;;9.1;72.0
73422;BME280;61637;47.760;-122.022;2023-11-19T03:40:01;100237.144;;;9.0;74.0
73422;BME280;61637;47.760;-122.022;2023-11-19T03:42:00;100237.144;;;8.9;73.0
73422;BME280;61637;47.760;-122.022;2023-11-19T03:44:00;100237.144;;;8.9;73.0
73422;BME280;61637;47.760;-122.022;2023-11-19T03:46:00;100237.144;;;8.9;73.0
73422;BME280;61637;47.760;-122.022;2023-11-19T03:48:00;100237.144;;;8.9;73.0
73422;BME280;61637;47.760;-122.022;2023-11-19T03:50:00;100237.144;;;8.9;72.0
73422;BME280;61637;47.760;-122.022;2023-11-19T03:52:00;100237.144;;;8.9;70.0
73422;BME280;61637;47.760;-122.022;2023-11-19T03:54:01;100237.144;;;9.2;70.0
73422;BME280;61637;47.760;-122.022;2023-11-19T03:56:00;100237.144;;;9.4;71.0
73422;BME280;61637;47.760;-122.022;2023-11-19T03:58:00;100237.144;;;9.6;69.0
73422;BME280;61637;47.760;-122.022;2023-11-19T04:00:00;100237.144;;;9.8;69.0
73422;BME280;61637;47.760;-122.022;2023-11-19T04:02:00;100237.144;;;9.9;69.0
73422;BME280;61637;47.760;-122.022;2023-11-19T04:04:00;100237.144;;;9.9;69.0
73422;BME280;61637;47.760;-122.022;2023-11-19T04:06:00;100237.144;;;9.9;69.0
73422;BME280;61637;47.760;-122.022;2023-11-19T04:08:00;100237.144;;;9.9;69.0
73422;BME280;61637;47.760;-122.022;2023-11-19T04:10:00;100237.144;;;9.9;70.0
73422;BME280;61637;47.760;-122.022;2023-11-19T04:12:00;100237.144;;;9.9;71.0
73422;BME280;61637;47.760;-122.022;2023-11-19T04:14:00;100237.144;;;9.8;72.0
73422;BME280;61637;47.760;-122.022;2023-11-19T04:16:01;100237.144;;;9.7;73.0
73422;BME280;61637;47.760;-122.022;2023-11-19T04:18:00;100237.144;;;9.7;74.0
73422;BME280;61637;47.760;-122.022;2023-11-19T04:20:00;100237.144;;;9.6;76.0
73422;BME280;61637;47.760;-122.022;2023-11-19T04:22:00;100237.144;;;9.5;77.0
73422;BME280;61637;47.760;-122.022;2023-11-19T04:24:00;100237.144;;;9.4;77.0
73422;BME280;61637;47.760;-122.022;2023-11-19T04:26:01;100237.144;;;9.3;78.0
73422;BME280;61637;47.760;-122.022;2023-11-19T04:28:00;100237.144;;;9.2;78.0
73422;BME280;61637;47.760;-122.022;2023-11-19T04:30:01;100575.783;;;9.2;79.0
73422;BME280;61637;47.760;-122.022;2023-11-19T04:32:00;100237.144;;;9.1;79.0
73422;BME280;61637;47.760;-122.022;2023-11-19T04:34:00;100575.783;;;9.1;80.0
73422;BME280;61637;47.760;-122.022;2023-11-19T04:36:00;100575.783;;;8.9;80.0
73422;BME280;61637;47.760;-122.022;2023-11-19T04:38:00;100575.783;;;8.9;81.0
73422;BME280;61637;47.760;-122.022;2023-11-19T04:40:01;100575.783;;;8.8;80.0
73422;BME280;61637;47.760;-122.022;2023-11-19T04:42:00;100575.783;;;8.7;81.0
73422;BME280;61637;47.760;-122.022;2023-11-19T04:44:00;100575.783;;;8.7;82.0
73422;BME280;61637;47.760;-122.022;2023-11-19T04:46:03;100575.783;;;8.6;83.0
73422;BME280;61637;47.760;-122.022;2023-11-19T04:48:00;100575.783;;;8.5;83.0
73422;BME280;61637;47.760;-122.022;2023-11-19T04:50:00;100575.783;;;8.4;84.0
73422;BME280;61637;47.760;-122.022;2023-11-19T04:52:00;100575.783;;;8.3;85.0
73422;BME280;61637;47.760;-122.022;2023-11-19T04:54:01;100575.783;;;8.3;85.0
73422;BME280;61637;47.760;-122.022;2023-11-19T04:56:00;100575.783;;;8.2;85.0
73422;BME280;61637;47.760;-122.022;2023-11-19T04:58:00;100575.783;;;8.1;86.0
73422;BME280;61637;47.760;-122.022;2023-11-19T05:00:00;100575.783;;;8.0;87.0
73422;BME280;61637;47.760;-122.022;2023-11-19T05:02:00;100575.783;;;7.9;87.0
73422;BME280;61637;47.760;-122.022;2023-11-19T05:04:01;100575.783;;;7.9;88.0
73422;BME280;61637;47.760;-122.022;2023-11-19T05:06:01;100575.783;;;7.8;88.0
73422;BME280;61637;47.760;-122.022;2023-11-19T05:08:00;100575.783;;;7.8;89.0
73422;BME280;61637;47.760;-122.022;2023-11-19T05:10:00;100575.783;;;7.8;89.0
73422;BME280;61637;47.760;-122.022;2023-11-19T05:12:00;100575.783;;;7.8;89.0
73422;BME280;61637;47.760;-122.022;2023-11-19T05:14:02;100575.783;;;7.8;90.0
73422;BME280;61637;47.760;-122.022;2023-11-19T05:16:01;100575.783;;;7.8;90.0
73422;BME280;61637;47.760;-122.022;2023-11-19T05:18:00;100575.783;;;7.8;90.0
73422;BME280;61637;47.760;-122.022;2023-11-19T05:20:00;100575.783;;;7.8;91.0
73422;BME280;61637;47.760;-122.022;2023-11-19T05:22:00;100575.783;;;7.8;91.0
73422;BME280;61637;47.760;-122.022;2023-11-19T05:24:00;100575.783;;;7.8;91.0
73422;BME280;61637;47.760;-122.022;2023-11-19T05:26:00;100575.783;;;7.8;91.0
73422;BME280;61637;47.760;-122.022;2023-11-19T05:28:00;100575.783;;;7.8;92.0
73422;BME280;61637;47.760;-122.022;2023-11-19T05:30:00;100575.783;;;7.8;92.0
73422;BME280;61637;47.760;-122.022;2023-11-19T05:32:00;100575.783;;;7.8;92.0
73422;BME280;61637;47.760;-122.022;2023-11-19T05:34:00;100575.783;;;7.8;92.0
73422;BME280;61637;47.760;-122.022;2023-11-19T05:36:00;100575.783;;;7.8;92.0
73422;BME280;61637;47.760;-122.022;2023-11-19T05:38:00;100575.783;;;7.7;93.0
73422;BME280;61637;47.760;-122.022;2023-11-19T05:40:01;100575.783;;;7.7;92.0
73422;BME280;61637;47.760;-122.022;2023-11-19T05:42:01;100575.783;;;7.7;93.0
73422;BME280;61637;47.760;-122.022;2023-11-19T05:44:00;100575.783;;;7.6;93.0
73422;BME280;61637;47.760;-122.022;2023-11-19T05:46:00;100575.783;;;7.6;93.0
73422;BME280;61637;47.760;-122.022;2023-11-19T05:48:00;100575.783;;;7.5;93.0
73422;BME280;61637;47.760;-122.022;2023-11-19T05:50:00;100575.783;;;7.5;93.0
73422;BME280;61637;47.760;-122.022;2023-11-19T05:52:00;100575.783;;;7.4;94.0
73422;BME280;61637;47.760;-122.022;2023-11-19T05:54:01;100575.783;;;7.4;94.0
73422;BME280;61637;47.760;-122.022;2023-11-19T05:56:00;100575.783;;;7.4;94.0
73422;BME280;61637;47.760;-122.022;2023-11-19T05:58:00;100575.783;;;7.4;94.0
73422;BME280;61637;47.760;-122.022;2023-11-19T06:00:00;100575.783;;;7.3;94.0
73422;BME280;61637;47.760;-122.022;2023-11-19T06:02:00;100575.783;;;7.3;95.0
73422;BME280;61637;47.760;-122.022;2023-11-19T06:04:00;100575.783;;;7.3;95.0
73422;BME280;61637;47.760;-122.022;2023-11-19T06:06:01;100575.783;;;7.3;95.0
73422;BME280;61637;47.760;-122.022;2023-11-19T06:08:00;100575.783;;;7.3;95.0
73422;BME280;61637;47.760;-122.022;2023-11-19T06:10:00;100575.783;;;7.3;95.0
73422;BME280;61637;47.760;-122.022;2023-11-19T06:12:00;100575.783;;;7.3;95.0
73422;BME280;61637;47.760;-122.022;2023-11-19T06:14:00;100575.783;;;7.3;95.0
73422;BME280;61637;47.760;-122.022;2023-11-19T06:16:00;100575.783;;;7.2;95.0
73422;BME280;61637;47.760;-122.022;2023-11-19T06:18:01;100575.783;;;7.2;95.0
73422;BME280;61637;47.760;-122.022;2023-11-19T06:20:00;100575.783;;;7.2;95.0
73422;BME280;61637;47.760;-122.022;2023-11-19T06:22:00;100575.783;;;7.2;95.0
73422;BME280;61637;47.760;-122.022;2023-11-19T06:24:00;100575.783;;;7.2;96.0
73422;BME280;61637;47.760;-122.022;2023-11-19T06:26:00;100575.783;;;7.2;96.0
73422;BME280;61637;47.760;-122.022;2023-11-19T06:28:01;100575.783;;;7.2;96.0
73422;BME280;61637;47.760;-122.022;2023-11-19T06:30:00;100575.783;;;7.2;96.0
73422;BME280;61637;47.760;-122.022;2023-11-19T06:32:00;100575.783;;;7.2;96.0
73422;BME280;61637;47.760;-122.022;2023-11-19T06:34:00;100575.783;;;7.2;96.0
73422;BME280;61637;47.760;-122.022;2023-11-19T06:36:00;100575.783;;;7.2;96.0
73422;BME280;61637;47.760;-122.022;2023-11-19T06:38:00;100575.783;;;7.2;96.0
73422;BME280;61637;47.760;-122.022;2023-11-19T06:40:01;100575.783;;;7.2;96.0
73422;BME280;61637;47.760;-122.022;2023-11-19T06:42:00;100575.783;;;7.2;96.0
73422;BME280;61637;47.760;-122.022;2023-11-19T06:44:00;100575.783;;;7.2;96.0
73422;BME280;61637;47.760;-122.022;2023-11-19T06:46:00;100575.783;;;7.2;96.0
73422;BME280;61637;47.760;-122.022;2023-11-19T06:48:01;100575.783;;;7.2;96.0
73422;BME280;61637;47.760;-122.022;2023-11-19T06:50:00;100575.783;;;7.2;96.0
73422;BME280;61637;47.760;-122.022;2023-11-19T06:52:00;100575.783;;;7.2;96.0
73422;BME280;61637;47.760;-122.022;2023-11-19T06:54:00;100575.783;;;7.2;96.0
73422;BME280;61637;47.760;-122.022;2023-11-19T06:56:00;100575.783;;;7.2;96.0
73422;BME280;61637;47.760;-122.022;2023-11-19T06:58:00;100575.783;;;7.2;96.0
73422;BME280;61637;47.760;-122.022;2023-11-19T07:00:00;100575.783;;;7.1;96.0
73422;BME280;61637;47.760;-122.022;2023-11-19T07:02:00;100575.783;;;7.1;96.0
73422;BME280;61637;47.760;-122.022;2023-11-19T07:04:00;100575.783;;;7.1;96.0
73422;BME280;61637;47.760;-122.022;2023-11-19T07:06:00;100575.783;;;7.1;96.0
73422;BME280;61637;47.760;-122.022;2023-11-19T07:08:00;100575.783;;;7.1;96.0
73422;BME280;61637;47.760;-122.022;2023-11-19T07:10:00;100575.783;;;7.1;96.0
73422;BME280;61637;47.760;-122.022;2023-11-19T07:12:00;100575.783;;;7.1;96.0
73422;BME280;61637;47.760;-122.022;2023-11-19T07:14:00;100575.783;;;7.1;96.0
73422;BME280;61637;47.760;-122.022;2023-11-19T07:16:01;100575.783;;;7.1;96.0
73422;BME280;61637;47.760;-122.022;2023-11-19T07:18:00;100575.783;;;7.0;96.0
73422;BME280;61637;47.760;-122.022;2023-11-19T07:20:00;100575.783;;;7.1;96.0
73422;BME280;61637;47.760;-122.022;2023-11-19T07:22:00;100575.783;;;7.1;97.0
73422;BME280;61637;47.760;-122.022;2023-11-19T07:24:01;100575.783;;;7.1;97.0
73422;BME280;61637;47.760;-122.022;2023-11-19T07:26:00;100575.783;;;7.1;97.0
73422;BME280;61637;47.760;-122.022;2023-11-19T07:28:00;100575.783;;;7.1;97.0
73422;BME280;61637;47.760;-122.022;2023-11-19T07:30:00;100575.783;;;7.1;97.0
73422;BME280;61637;47.760;-122.022;2023-11-19T07:32:00;100575.783;;;7.0;96.0
73422;BME280;61637;47.760;-122.022;2023-11-19T07:34:00;100575.783;;;7.1;97.0
73422;BME280;61637;47.760;-122.022;2023-11-19T07:36:00;100575.783;;;7.0;97.0
73422;BME280;61637;47.760;-122.022;2023-11-19T07:38:00;100575.783;;;7.0;97.0
73422;BME280;61637;47.760;-122.022;2023-11-19T07:40:01;100575.783;;;7.0;96.0
73422;BME280;61637;47.760;-122.022;2023-11-19T07:42:00;100575.783;;;7.0;97.0
73422;BME280;61637;47.760;-122.022;2023-11-19T07:44:00;100575.783;;;7.0;96.0
73422;BME280;61637;47.760;-122.022;2023-11-19T07:46:00;100575.783;;;6.9;97.0
73422;BME280;61637;47.760;-122.022;2023-11-19T07:48:00;100575.783;;;6.9;97.0
73422;BME280;61637;47.760;-122.022;2023-11-19T07:50:00;100575.783;;;7.0;97.0
73422;BME280;61637;47.760;-122.022;2023-11-19T07:52:00;100575.783;;;7.0;97.0
73422;BME280;61637;47.760;-122.022;2023-11-19T07:54:00;100575.783;;;6.9;97.0
73422;BME280;61637;47.760;-122.022;2023-11-19T07:56:00;100575.783;;;6.9;97.0
73422;BME280;61637;47.760;-122.022;2023-11-19T07:58:00;100914.42199999999;;;7.0;97.0
73422;BME280;61637;47.760;-122.022;2023-11-19T08:00:00;100914.42199999999;;;7.0;97.0
73422;BME280;61637;47.760;-122.022;2023-11-19T08:02:00;100914.42199999999;;;6.9;97.0
73422;BME280;61637;47.760;-122.022;2023-11-19T08:04:00;100914.42199999999;;;7.0;97.0
73422;BME280;61637;47.760;-122.022;2023-11-19T08:06:00;100914.42199999999;;;7.0;97.0
73422;BME280;61637;47.760;-122.022;2023-11-19T08:08:00;100914.42199999999;;;7.0;97.0
73422;BME280;61637;47.760;-122.022;2023-11-19T08:10:00;100914.42199999999;;;7.0;97.0
73422;BME280;61637;47.760;-122.022;2023-11-19T08:12:00;100914.42199999999;;;7.0;97.0
73422;BME280;61637;47.760;-122.022;2023-11-19T08:14:00;100914.42199999999;;;7.1;97.0
73422;BME280;61637;47.760;-122.022;2023-11-19T08:16:00;100914.42199999999;;;7.1;97.0
73422;BME280;61637;47.760;-122.022;2023-11-19T08:18:00;100914.42199999999;;;7.1;97.0
73422;BME280;61637;47.760;-122.022;2023-11-19T08:20:00;100914.42199999999;;;7.1;97.0
73422;BME280;61637;47.760;-122.022;2023-11-19T08:22:00;100914.42199999999;;;7.1;97.0
73422;BME280;61637;47.760;-122.022;2023-11-19T08:24:00;100914.42199999999;;;7.1;97.0
73422;BME280;61637;47.760;-122.022;2023-11-19T08:26:00;100914.42199999999;;;7.1;97.0
73422;BME280;61637;47.760;-122.022;2023-11-19T08:28:01;100914.42199999999;;;7.2;97.0
73422;BME280;61637;47.760;-122.022;2023-11-19T08:30:01;100914.42199999999;;;7.2;97.0
73422;BME280;61637;47.760;-122.022;2023-11-19T08:32:00;100914.42199999999;;;7.3;97.0
73422;BME280;61637;47.760;-122.022;2023-11-19T08:34:00;100914.42199999999;;;7.3;97.0
73422;BME280;61637;47.760;-122.022;2023-11-19T08:36:00;100914.42199999999;;;7.4;97.0
73422;BME280;61637;47.760;-122.022;2023-11-19T08:38:00;100914.42199999999;;;7.5;97.0
73422;BME280;61637;47.760;-122.022;2023-11-19T08:40:00;100914.42199999999;;;7.5;97.0
73422;BME280;61637;47.760;-122.022;2023-11-19T08:42:01;100914.42199999999;;;7.6;98.0
73422;BME280;61637;47.760;-122.022;2023-11-19T08:44:00;100914.42199999999;;;7.6;97.0
73422;BME280;61637;47.760;-122.022;2023-11-19T08:46:00;100914.42199999999;;;7.7;97.0
73422;BME280;61637;47.760;-122.022;2023-11-19T08:48:00;100914.42199999999;;;7.7;97.0
73422;BME280;61637;47.760;-122.022;2023-11-19T08:50:00;100914.42199999999;;;7.8;97.0
73422;BME280;61637;47.760;-122.022;2023-11-19T08:52:01;100914.42199999999;;;7.8;97.0
73422;BME280;61637;47.760;-122.022;2023-11-19T08:54:01;100914.42199999999;;;7.8;98.0
73422;BME280;61637;47.760;-122.022;2023-11-19T08:56:00;100914.42199999999;;;7.9;97.0
73422;BME280;61637;47.760;-122.022;2023-11-19T08:58:00;100914.42199999999;;;7.9;97.0
73422;BME280;61637;47.760;-122.022;2023-11-19T09:00:00;100914.42199999999;;;7.9;97.0
73422;BME280;61637;47.760;-122.022;2023-11-19T09:02:00;100914.42199999999;;;7.9;97.0
73422;BME280;61637;47.760;-122.022;2023-11-19T09:04:01;100914.42199999999;;;7.9;97.0
73422;BME280;61637;47.760;-122.022;2023-11-19T09:06:00;100914.42199999999;;;7.9;97.0
73422;BME280;61637;47.760;-122.022;2023-11-19T09:08:00;100914.42199999999;;;7.9;97.0
73422;BME280;61637;47.760;-122.022;2023-11-19T09:10:00;100914.42199999999;;;7.9;97.0
73422;BME280;61637;47.760;-122.022;2023-11-19T09:12:00;100914.42199999999;;;7.9;97.0
73422;BME280;61637;47.760;-122.022;2023-11-19T09:14:00;100914.42199999999;;;7.9;97.0
73422;BME280;61637;47.760;-122.022;2023-11-19T09:16:01;100914.42199999999;;;7.9;97.0
73422;BME280;61637;47.760;-122.022;2023-11-19T09:18:01;100914.42199999999;;;7.9;97.0
73422;BME280;61637;47.760;-122.022;2023-11-19T09:20:00;100914.42199999999;;;8.0;97.0
73422;BME280;61637;47.760;-122.022;2023-11-19T09:22:00;100914.42199999999;;;8.0;97.0
73422;BME280;61637;47.760;-122.022;2023-11-19T09:24:00;100914.42199999999;;;8.0;97.0
73422;BME280;61637;47.760;-122.022;2023-11-19T09:26:00;100914.42199999999;;;8.0;97.0
73422;BME280;61637;47.760;-122.022;2023-11-19T09:28:00;100914.42199999999;;;8.0;97.0
73422;BME280;61637;47.760;-122.022;2023-11-19T09:30:01;100914.42199999999;;;8.0;97.0
73422;BME280;61637;47.760;-122.022;2023-11-19T09:32:00;100914.42199999999;;;8.0;96.0
73422;BME280;61637;47.760;-122.022;2023-11-19T09:34:00;100914.42199999999;;;8.0;97.0
73422;BME280;61637;47.760;-122.022;2023-11-19T09:36:00;100914.42199999999;;;8.0;97.0
73422;BME280;61637;47.760;-122.022;2023-11-19T09:38:00;100914.42199999999;;;8.0;96.0
73422;BME280;61637;47.760;-122.022;2023-11-19T09:40:00;100914.42199999999;;;8.0;96.0
73422;BME280;61637;47.760;-122.022;2023-11-19T09:42:01;100914.42199999999;;;8.0;96.0
73422;BME280;61637;47.760;-122.022;2023-11-19T09:44:00;100914.42199999999;;;8.0;96.0
73422;BME280;61637;47.760;-122.022;2023-11-19T09:46:01;100914.42199999999;;;8.0;96.0
73422;BME280;61637;47.760;-122.022;2023-11-19T09:48:00;100914.42199999999;;;8.0;96.0
73422;BME280;61637;47.760;-122.022;2023-11-19T09:50:00;100914.42199999999;;;8.0;96.0
73422;BME280;61637;47.760;-122.022;2023-11-19T09:52:01;101253.06099999999;;;8.0;96.0
73422;BME280;61637;47.760;-122.022;2023-11-19T09:54:01;101253.06099999999;;;7.9;96.0
73422;BME280;61637;47.760;-122.022;2023-11-19T09:56:00;101253.06099999999;;;7.9;96.0
73422;BME280;61637;47.760;-122.022;2023-11-19T09:58:00;101253.06099999999;;;7.9;96.0
73422;BME280;61637;47.760;-122.022;2023-11-19T10:00:00;101253.06099999999;;;7.9;96.0
73422;BME280;61637;47.760;-122.022;2023-11-19T10:02:00;101253.06099999999;;;7.9;96.0
73422;BME280;61637;47.760;-122.022;2023-11-19T10:04:01;101253.06099999999;;;7.9;96.0
73422;BME280;61637;47.760;-122.022;2023-11-19T10:06:01;101253.06099999999;;;7.9;96.0